Time;durP1;ratioP1;P1;durP2;ratioP2;P2;SDS_P1;SDS_P2;PMS_P1;PMS_P2;Temp;Humidity;BMP_temperature;BMP_pressure;BME280_temperature;BME280_humidity;BME280_pressure;Samples;Min_cycle;Max_cycle;Signal;HPM_P1;HPM_P2
2022/01/19 00:01:05;;;;;;;11.02;5.80;;;;;;;6.72;72.34;103174.00;5011927;28;20038;-83
2022/01/19 00:03:31;;;;;;;9.15;4.93;;;;;;;6.59;72.41;103182.44;5007040;28;20120;-83
2022/01/19 00:05:56;;;;;;;12.05;4.85;;;;;;;6.38;72.80;103181.22;5003164;28;20116;-84
2022/01/19 00:08:22;;;;;;;10.93;5.68;;;;;;;6.28;72.94;103179.53;5015595;28;20104;-83
2022/01/19 00:10:50;;;;;;;13.93;4.60;;;;;;;6.17;73.20;103179.78;5029301;28;20594;-84
2022/01/19 00:13:16;;;;;;;8.10;4.20;;;;;;;6.19;73.24;103172.47;5022309;28;20140;-82
2022/01/19 00:15:43;;;;;;;9.95;4.78;;;;;;;6.20;73.57;103178.63;5031208;28;20124;-84
2022/01/19 00:18:08;;;;;;;9.63;5.05;;;;;;;6.18;73.11;103170.81;5022521;28;20032;-84
2022/01/19 00:20:35;;;;;;;9.55;4.70;;;;;;;6.17;73.30;103166.50;5025218;28;20018;-82
2022/01/19 00:23:03;;;;;;;7.75;4.43;;;;;;;6.13;73.33;103162.47;5009037;28;20064;-82
2022/01/19 00:25:29;;;;;;;8.93;4.63;;;;;;;6.09;73.13;103149.63;5015265;28;20052;-83
2022/01/19 00:27:55;;;;;;;11.38;4.30;;;;;;;6.00;73.40;103140.78;5010907;28;20108;-84
2022/01/19 00:30:20;;;;;;;7.68;4.30;;;;;;;5.91;73.45;103139.06;5021697;28;20037;-83
2022/01/19 00:32:46;;;;;;;13.75;4.85;;;;;;;5.83;73.67;103144.31;5026569;28;20037;-83
2022/01/19 00:35:12;;;;;;;11.40;4.35;;;;;;;5.76;73.83;103142.31;5008691;28;20041;-84
2022/01/19 00:37:42;;;;;;;8.05;4.40;;;;;;;5.71;73.66;103125.13;5027557;28;20026;-83
2022/01/19 00:40:10;;;;;;;9.63;4.20;;;;;;;5.63;74.00;103127.75;5009827;28;20125;-84
2022/01/19 00:42:36;;;;;;;8.40;3.70;;;;;;;5.58;73.90;103130.91;5025093;28;20076;-84
2022/01/19 00:45:03;;;;;;;9.98;4.90;;;;;;;5.36;74.33;103134.06;5019769;28;20484;-83
2022/01/19 00:47:29;;;;;;;7.90;4.00;;;;;;;5.27;74.96;103129.69;5018885;28;20099;-82
2022/01/19 00:49:54;;;;;;;12.15;4.45;;;;;;;5.25;74.87;103126.34;5008955;28;20038;-84
2022/01/19 00:52:20;;;;;;;11.35;4.82;;;;;;;5.28;75.06;103115.41;5023887;28;20026;-84
2022/01/19 00:54:45;;;;;;;12.38;4.13;;;;;;;5.28;74.76;103128.69;5021190;28;20288;-84
2022/01/19 00:57:11;;;;;;;12.23;4.05;;;;;;;5.26;74.72;103128.00;4997939;28;20128;-83
2022/01/19 00:59:36;;;;;;;12.27;3.90;;;;;;;5.07;74.80;103132.53;5002904;28;20021;-84
2022/01/19 01:02:03;;;;;;;11.18;4.35;;;;;;;4.91;75.11;103135.03;5007365;28;20021;-83
2022/01/19 01:04:29;;;;;;;8.55;3.58;;;;;;;4.75;75.47;103133.06;5022833;28;20156;-83
2022/01/19 01:06:54;;;;;;;12.75;4.30;;;;;;;4.63;75.96;103144.03;4999783;28;20029;-83
2022/01/19 01:09:20;;;;;;;8.25;3.58;;;;;;;4.61;76.38;103146.84;5007737;28;20030;-83
2022/01/19 01:11:57;;;;;;;8.25;4.55;;;;;;;4.66;76.44;103146.38;5023289;28;20045;-84
2022/01/19 01:18:17;;;;;;;8.93;4.00;;;;;;;4.76;76.05;103147.16;5010255;28;20606;-84
2022/01/19 01:19:55;;;;;;;10.63;3.88;;;;;;;4.70;75.84;103137.16;5010905;28;20053;-83
2022/01/19 01:22:21;;;;;;;9.23;4.53;;;;;;;4.67;76.12;103132.97;5011513;28;20035;-84
2022/01/19 01:24:46;;;;;;;15.90;4.53;;;;;;;4.68;75.85;103123.19;5005885;28;20428;-83
2022/01/19 01:27:12;;;;;;;16.08;4.28;;;;;;;4.67;75.77;103124.16;5007667;28;20037;-84
2022/01/19 01:29:37;;;;;;;11.93;4.65;;;;;;;4.65;76.33;103126.97;5008762;28;20120;-83
2022/01/19 01:32:03;;;;;;;13.70;5.07;;;;;;;4.67;76.03;103118.84;5024284;28;20030;-83
2022/01/19 01:34:28;;;;;;;11.60;5.47;;;;;;;4.64;76.20;103106.72;5023313;28;20037;-84
2022/01/19 01:36:54;;;;;;;12.27;5.75;;;;;;;4.62;76.35;103097.22;5021991;28;20049;-84
2022/01/19 01:39:19;;;;;;;14.88;5.70;;;;;;;4.59;76.65;103102.84;5001931;28;20029;-83
2022/01/19 01:41:45;;;;;;;14.90;5.72;;;;;;;4.57;76.61;103096.84;5019113;28;20037;-83
2022/01/19 01:44:10;;;;;;;15.57;6.13;;;;;;;4.50;76.94;103089.50;5025259;28;20346;-83
2022/01/19 01:46:49;;;;;;;12.98;5.97;;;;;;;4.50;76.95;103091.31;5007862;28;20503;-83
2022/01/19 01:54:45;;;;;;;17.77;6.03;;;;;;;4.42;77.11;103052.25;5006851;28;20519;-84
2022/01/19 01:57:11;;;;;;;15.82;5.55;;;;;;;4.40;77.42;103032.97;5021688;28;20033;-83
2022/01/19 01:59:37;;;;;;;22.98;7.10;;;;;;;4.37;77.55;103022.66;5008199;28;20105;-84
2022/01/19 02:02:03;;;;;;;19.85;6.10;;;;;;;4.37;77.40;103025.31;5006783;28;20041;-84
2022/01/19 02:04:30;;;;;;;13.25;5.78;;;;;;;4.37;77.87;103021.84;5002306;28;20771;-83
2022/01/19 02:07:19;;;;;;;12.98;6.07;;;;;;;4.35;77.75;103032.59;5000130;28;20034;-83
2022/01/19 02:09:44;;;;;;;22.13;7.05;;;;;;;4.27;77.86;103034.34;5006568;28;20262;-83
2022/01/19 02:23:27;;;;;;;19.73;6.25;;;;;;;4.23;77.97;103039.13;5007503;28;20049;-83
2022/01/19 02:25:59;;;;;;;13.83;6.60;;;;;;;4.20;78.08;103036.75;5006112;28;20023;-83
2022/01/19 02:42:08;;;;;;;19.65;6.85;;;;;;;4.14;78.65;102985.16;5008136;28;20129;-81
2022/01/19 02:49:43;;;;;;;17.88;6.68;;;;;;;4.13;79.45;102966.69;5004963;28;20044;-84
2022/01/19 02:52:09;;;;;;;23.17;7.72;;;;;;;4.10;79.36;102972.31;5005553;28;20543;-84
2022/01/19 02:54:35;;;;;;;16.52;6.95;;;;;;;4.12;79.51;102972.97;5004346;28;20030;-83
2022/01/19 02:57:02;;;;;;;22.60;7.70;;;;;;;4.12;79.55;102965.84;5007430;28;20029;-83
2022/01/19 03:10:27;;;;;;;19.42;7.03;;;;;;;3.98;81.03;102941.69;5006331;28;20432;-82
2022/01/19 03:12:52;;;;;;;14.82;6.82;;;;;;;4.09;80.25;102933.50;5006215;28;20037;-83
2022/01/19 03:15:19;;;;;;;16.83;6.53;;;;;;;4.12;79.89;102922.56;5004694;28;20026;-83
2022/01/19 03:17:45;;;;;;;18.13;7.05;;;;;;;4.05;80.74;102922.38;5019844;28;20759;-83
2022/01/19 03:20:12;;;;;;;17.45;6.63;;;;;;;4.00;81.27;102924.66;5025172;28;20030;-84
2022/01/19 03:22:53;;;;;;;18.13;6.47;;;;;;;4.07;80.40;102915.09;5015849;28;20014;-81
2022/01/19 03:25:19;;;;;;;13.10;5.43;;;;;;;3.99;81.26;102916.84;5022122;28;20055;-83
2022/01/19 03:27:47;;;;;;;17.50;6.63;;;;;;;3.98;81.46;102909.88;5022005;28;21260;-84
2022/01/19 03:30:15;;;;;;;13.93;6.70;;;;;;;3.96;81.71;102890.63;5004443;28;20227;-82
2022/01/19 03:32:41;;;;;;;16.60;6.55;;;;;;;3.96;81.86;102888.81;5006908;28;20022;-83
2022/01/19 03:35:07;;;;;;;13.93;5.90;;;;;;;4.06;80.95;102891.38;4998100;28;20036;-82
2022/01/19 03:37:34;;;;;;;16.02;7.10;;;;;;;4.10;80.58;102887.41;5006643;28;20459;-83
2022/01/19 03:40:00;;;;;;;15.98;7.10;;;;;;;4.12;80.46;102877.47;5019920;28;20028;-82
2022/01/19 03:42:25;;;;;;;14.98;6.70;;;;;;;4.03;81.49;102873.09;5042708;28;20038;-82
2022/01/19 03:44:51;;;;;;;19.73;7.32;;;;;;;4.01;81.84;102867.97;5007848;28;20133;-83
2022/01/19 03:47:17;;;;;;;14.95;5.40;;;;;;;4.01;81.48;102867.13;5010761;28;20388;-83
2022/01/19 03:49:43;;;;;;;17.67;6.97;;;;;;;4.03;81.46;102873.94;5026120;28;20068;-83
2022/01/19 03:52:08;;;;;;;15.65;6.88;;;;;;;4.01;81.47;102873.25;5021732;28;20057;-82
2022/01/19 03:54:41;;;;;;;17.80;7.25;;;;;;;4.02;81.64;102884.69;5012297;28;20022;-83
2022/01/19 03:57:07;;;;;;;14.40;6.07;;;;;;;4.00;82.15;102878.72;5002006;28;20040;-82
2022/01/19 03:59:33;;;;;;;17.48;6.38;;;;;;;3.91;82.70;102873.31;5025728;28;20025;-83
2022/01/19 04:01:59;;;;;;;16.98;7.38;;;;;;;3.97;82.32;102877.22;5024238;28;20045;-83
2022/01/19 04:04:50;;;;;;;18.52;7.25;;;;;;;3.88;82.82;102883.41;5011704;28;20033;-83
2022/01/19 04:07:15;;;;;;;19.77;8.02;;;;;;;3.89;82.68;102880.59;5006419;28;20032;-83
2022/01/19 04:09:43;;;;;;;15.95;8.07;;;;;;;3.93;82.40;102881.97;5027640;28;20263;-83
2022/01/19 04:12:14;;;;;;;26.42;9.07;;;;;;;3.89;82.73;102877.97;5016201;28;20029;-83
2022/01/19 04:14:39;;;;;;;16.08;7.38;;;;;;;3.92;83.39;102879.47;5019014;28;20022;-83
2022/01/19 04:17:08;;;;;;;22.55;8.52;;;;;;;3.92;83.21;102877.66;5022360;28;20121;-83
2022/01/19 04:22:09;;;;;;;16.90;8.07;;;;;;;3.88;83.26;102870.16;5008998;28;20130;-82
2022/01/19 04:24:36;;;;;;;18.05;8.35;;;;;;;3.95;82.75;102865.94;5005244;28;20030;-83
2022/01/19 04:27:45;;;;;;;19.95;8.57;;;;;;;3.97;82.62;102860.47;5007521;28;20048;-83
2022/01/19 04:30:14;;;;;;;18.13;8.23;;;;;;;3.96;82.74;102864.09;5005636;28;20030;-83
2022/01/19 04:35:26;;;;;;;25.10;8.45;;;;;;;4.02;82.37;102852.88;5008776;28;20446;-83
2022/01/19 04:38:10;;;;;;;24.90;8.52;;;;;;;3.98;82.87;102844.41;5026443;28;20036;-84
2022/01/19 05:05:28;;;;;;;18.77;8.85;;;;;;;4.02;82.47;102805.97;5008728;28;20083;-82
2022/01/19 05:07:59;;;;;;;15.65;8.40;;;;;;;4.01;82.17;102806.94;5007438;28;20021;-83
2022/01/19 05:15:52;;;;;;;19.60;8.48;;;;;;;3.84;83.85;102791.91;5010282;28;20064;-83
2022/01/19 05:18:18;;;;;;;19.60;8.30;;;;;;;3.81;83.94;102787.75;5005073;28;20041;-83
2022/01/19 05:20:45;;;;;;;18.75;8.55;;;;;;;3.91;83.30;102793.75;5018431;28;20041;-83
2022/01/19 05:23:12;;;;;;;20.30;8.32;;;;;;;3.99;83.04;102800.13;5023409;28;20034;-83
2022/01/19 05:25:38;;;;;;;20.70;8.75;;;;;;;3.98;82.96;102793.16;4993581;28;20030;-83
2022/01/19 05:28:04;;;;;;;20.17;8.07;;;;;;;3.97;83.24;102788.84;5023747;28;20038;-84
2022/01/19 05:30:30;;;;;;;22.90;8.77;;;;;;;3.94;82.74;102777.53;5005578;28;20033;-83
2022/01/19 05:32:55;;;;;;;19.70;8.82;;;;;;;3.90;83.66;102770.06;4996325;28;20394;-83
2022/01/19 05:35:21;;;;;;;26.58;8.50;;;;;;;3.99;83.09;102777.09;5000953;28;20097;-84
2022/01/19 05:37:46;;;;;;;22.33;8.52;;;;;;;4.05;82.65;102775.63;5008690;28;20040;-85
2022/01/19 05:40:14;;;;;;;20.80;8.23;;;;;;;3.99;83.11;102765.66;5015904;28;20543;-83
2022/01/19 05:42:41;;;;;;;25.73;8.88;;;;;;;4.03;82.68;102764.34;5007829;28;20038;-83
2022/01/19 05:45:07;;;;;;;21.90;8.75;;;;;;;3.96;83.15;102756.19;5006603;28;20030;-83
2022/01/19 05:47:33;;;;;;;18.65;8.45;;;;;;;4.04;82.57;102748.28;5002201;28;20033;-83
2022/01/19 05:49:58;;;;;;;21.60;8.23;;;;;;;4.04;82.78;102734.19;5023778;28;20064;-83
2022/01/19 05:52:24;;;;;;;21.67;9.35;;;;;;;4.06;82.16;102735.69;5007802;28;20022;-83
2022/01/19 05:54:50;;;;;;;24.65;9.38;;;;;;;4.04;82.64;102723.56;5006091;28;20481;-83
2022/01/19 05:57:15;;;;;;;25.40;10.38;;;;;;;3.91;83.51;102731.94;5002935;28;20040;-85
2022/01/19 05:59:41;;;;;;;21.42;9.50;;;;;;;4.00;83.13;102717.75;5019361;28;20447;-83
2022/01/19 06:02:07;;;;;;;22.38;9.88;;;;;;;4.05;82.41;102706.66;5007037;28;20031;-83
2022/01/19 06:04:33;;;;;;;31.77;11.43;;;;;;;4.05;82.66;102683.63;5005193;28;20113;-83
2022/01/19 06:07:01;;;;;;;22.70;10.55;;;;;;;4.08;82.50;102679.81;5022099;28;20033;-83
2022/01/19 06:09:34;;;;;;;28.15;10.90;;;;;;;4.11;82.31;102672.38;5026212;28;20404;-82
2022/01/19 06:12:13;;;;;;;23.92;11.20;;;;;;;4.13;81.89;102666.91;5005163;28;20075;-84
2022/01/19 06:14:41;;;;;;;25.02;10.95;;;;;;;4.11;81.92;102668.88;4998129;28;20045;-83
2022/01/19 06:17:08;;;;;;;24.02;11.10;;;;;;;4.11;82.19;102663.59;5011731;28;20498;-83
2022/01/19 06:19:33;;;;;;;27.00;11.07;;;;;;;4.09;82.25;102655.78;5001852;28;20030;-83
2022/01/19 06:21:59;;;;;;;22.40;10.55;;;;;;;4.10;82.18;102654.78;5023229;28;20053;-83
2022/01/19 06:24:25;;;;;;;29.65;11.20;;;;;;;4.08;82.25;102642.69;5002399;28;20025;-83
2022/01/19 06:26:51;;;;;;;24.98;11.38;;;;;;;4.11;82.09;102631.75;5022420;28;20025;-83
2022/01/19 06:29:16;;;;;;;24.48;10.15;;;;;;;4.09;82.06;102631.91;5007487;28;20025;-83
2022/01/19 06:31:42;;;;;;;28.10;12.32;;;;;;;4.10;82.12;102632.75;5001744;28;20030;-83
2022/01/19 06:34:08;;;;;;;29.27;10.90;;;;;;;4.03;83.10;102639.69;5008434;28;20026;-83
2022/01/19 06:36:34;;;;;;;28.15;10.45;;;;;;;4.07;82.40;102625.94;5017031;28;20507;-84
2022/01/19 06:38:59;;;;;;;25.77;11.45;;;;;;;4.06;82.21;102610.19;5018379;28;20030;-82
2022/01/19 06:41:25;;;;;;;31.08;10.68;;;;;;;4.09;82.44;102616.00;5008853;28;20116;-82
2022/01/19 06:43:50;;;;;;;24.30;9.95;;;;;;;4.07;82.40;102617.97;5009504;28;20029;-83
2022/01/19 06:46:16;;;;;;;21.45;9.48;;;;;;;4.05;82.30;102612.00;5007125;28;20033;-82
2022/01/19 06:48:42;;;;;;;25.65;10.10;;;;;;;4.05;82.50;102609.34;5007959;28;20021;-82
2022/01/19 06:51:07;;;;;;;28.55;10.57;;;;;;;4.05;82.52;102612.00;5006385;28;20026;-82
2022/01/19 06:53:33;;;;;;;23.85;10.82;;;;;;;4.07;82.54;102611.84;5001625;28;21363;-82
2022/01/19 06:55:58;;;;;;;22.75;10.00;;;;;;;4.06;82.58;102610.19;5005405;28;20034;-82
2022/01/19 06:58:25;;;;;;;24.48;9.85;;;;;;;4.05;82.62;102609.34;5001623;28;20599;-82
2022/01/19 07:00:50;;;;;;;23.80;9.98;;;;;;;4.09;82.43;102604.56;5014322;28;20029;-82
2022/01/19 07:03:16;;;;;;;24.13;10.70;;;;;;;4.09;82.24;102605.38;5006986;28;20029;-82
2022/01/19 07:05:41;;;;;;;23.30;9.60;;;;;;;4.07;82.30;102595.94;5002410;28;20033;-82
2022/01/19 07:08:07;;;;;;;23.98;9.70;;;;;;;4.06;82.49;102588.97;5009344;28;20032;-82
2022/01/19 07:10:33;;;;;;;23.77;8.77;;;;;;;4.01;82.73;102583.31;5007510;28;20040;-82
2022/01/19 07:13:03;;;;;;;24.13;10.63;;;;;;;3.93;83.20;102589.41;5022729;28;20033;-82
2022/01/19 07:15:29;;;;;;;23.25;9.38;;;;;;;3.93;83.34;102587.56;5006031;28;20064;-82
2022/01/19 07:17:54;;;;;;;22.95;9.65;;;;;;;3.99;83.09;102582.66;5016825;28;20156;-82
2022/01/19 07:20:20;;;;;;;20.52;9.73;;;;;;;3.97;83.34;102571.38;5025371;28;20176;-81
2022/01/19 07:22:47;;;;;;;25.00;10.82;;;;;;;3.98;82.83;102567.72;5007738;28;20026;-82
2022/01/19 07:25:14;;;;;;;27.10;10.13;;;;;;;3.97;82.78;102564.25;4997574;28;20488;-82
2022/01/19 07:27:40;;;;;;;22.08;9.90;;;;;;;3.98;83.04;102557.94;5024404;28;20168;-83
2022/01/19 07:30:07;;;;;;;19.38;10.20;;;;;;;3.99;82.70;102550.81;5007709;28;20045;-82
2022/01/19 07:32:34;;;;;;;19.30;9.20;;;;;;;3.99;82.75;102535.75;5010194;28;20025;-82
2022/01/19 07:35:04;;;;;;;24.05;9.85;;;;;;;4.02;82.83;102534.59;5009185;28;20484;-83
2022/01/19 07:37:30;;;;;;;22.38;9.77;;;;;;;3.99;82.49;102527.78;5014109;28;20512;-83
2022/01/19 07:39:57;;;;;;;20.45;9.00;;;;;;;3.99;82.78;102519.81;5013113;28;20033;-82
2022/01/19 07:42:23;;;;;;;20.58;9.48;;;;;;;3.98;82.77;102510.22;5000170;28;20041;-82
2022/01/19 07:44:49;;;;;;;25.08;10.27;;;;;;;4.00;82.93;102504.75;5013518;28;20235;-82
2022/01/19 07:47:14;;;;;;;24.65;9.95;;;;;;;4.02;82.47;102502.75;5027371;28;20025;-83
2022/01/19 07:49:39;;;;;;;23.00;9.95;;;;;;;4.04;82.43;102512.22;5021235;28;20034;-83
2022/01/19 07:52:05;;;;;;;22.73;9.30;;;;;;;3.98;82.97;102518.16;5006933;28;20029;-82
2022/01/19 07:54:31;;;;;;;21.25;9.63;;;;;;;3.95;82.90;102513.19;5006116;28;20108;-82
2022/01/19 07:56:56;;;;;;;21.00;10.07;;;;;;;3.91;83.43;102520.63;5019295;28;20042;-83
2022/01/19 07:59:21;;;;;;;20.83;9.27;;;;;;;3.96;83.15;102509.53;5015764;28;20116;-82
2022/01/19 08:01:47;;;;;;;20.73;10.65;;;;;;;4.03;82.75;102513.19;5002860;28;20419;-83
2022/01/19 08:04:13;;;;;;;22.33;9.73;;;;;;;4.05;82.84;102499.78;5001798;28;20044;-82
2022/01/19 08:06:38;;;;;;;20.48;9.55;;;;;;;4.05;82.52;102503.25;4996569;28;20089;-83
2022/01/19 08:09:04;;;;;;;22.67;10.95;;;;;;;4.02;82.57;102497.44;5003384;28;20059;-82
2022/01/19 08:11:30;;;;;;;19.60;10.40;;;;;;;4.03;82.82;102493.81;5003345;28;20029;-82
2022/01/19 08:13:55;;;;;;;22.02;9.98;;;;;;;3.91;83.40;102495.91;5021340;28;20045;-82
2022/01/19 08:16:21;;;;;;;17.20;9.32;;;;;;;3.93;83.18;102489.44;5005652;28;20527;-84
2022/01/19 08:18:48;;;;;;;18.20;10.23;;;;;;;4.03;82.78;102488.50;5014622;28;20037;-84
2022/01/19 08:21:13;;;;;;;27.98;10.35;;;;;;;4.07;82.77;102495.13;4997406;28;20029;-83
2022/01/19 08:23:39;;;;;;;22.98;10.45;;;;;;;4.09;82.42;102491.31;5024134;28;20026;-84
2022/01/19 08:26:05;;;;;;;21.02;11.05;;;;;;;4.11;82.33;102485.84;5017237;28;20377;-83
2022/01/19 08:28:30;;;;;;;23.70;11.07;;;;;;;4.14;82.59;102491.69;5011158;28;20033;-84
2022/01/19 08:30:56;;;;;;;21.60;11.18;;;;;;;4.15;82.12;102487.22;5001364;28;20065;-83
2022/01/19 08:33:21;;;;;;;22.38;11.10;;;;;;;4.18;82.31;102484.22;5016165;28;20484;-83
2022/01/19 08:35:47;;;;;;;17.77;10.50;;;;;;;4.17;82.39;102487.88;5007807;28;20030;-84
2022/01/19 08:38:13;;;;;;;21.02;11.43;;;;;;;4.19;82.14;102484.06;5023794;28;20399;-84
2022/01/19 08:40:38;;;;;;;27.45;11.35;;;;;;;4.17;81.83;102482.56;4998339;28;20040;-84
2022/01/19 08:43:04;;;;;;;25.30;11.30;;;;;;;4.18;82.17;102478.91;5013322;28;20553;-84
2022/01/19 08:45:31;;;;;;;24.15;11.90;;;;;;;4.17;82.19;102479.91;5000478;28;20127;-85
2022/01/19 08:47:56;;;;;;;24.10;11.18;;;;;;;4.14;82.07;102469.63;5004568;28;20022;-84
2022/01/19 08:50:24;;;;;;;22.95;11.57;;;;;;;4.17;81.96;102464.00;5003799;28;20074;-85
2022/01/19 08:52:50;;;;;;;21.77;11.00;;;;;;;4.19;81.87;102456.69;5018738;28;20449;-84
2022/01/19 08:55:17;;;;;;;24.08;11.38;;;;;;;4.24;81.91;102454.38;5001462;28;20067;-84
2022/01/19 08:57:44;;;;;;;24.95;11.45;;;;;;;4.24;81.96;102457.03;5007131;28;20112;-83
2022/01/19 09:00:15;;;;;;;26.33;12.73;;;;;;;4.26;81.63;102463.00;5006252;28;20032;-84
2022/01/19 09:02:41;;;;;;;25.83;11.73;;;;;;;4.29;81.31;102452.03;5014843;22;20053;-46
2022/01/19 09:05:08;;;;;;;25.30;11.95;;;;;;;4.26;81.72;102441.78;4985959;28;20076;-48
2022/01/19 09:07:34;;;;;;;25.30;12.02;;;;;;;4.32;81.69;102448.25;4985612;28;21380;-46
2022/01/19 09:09:59;;;;;;;29.05;14.00;;;;;;;4.31;81.55;102447.44;4986062;28;20037;-46
2022/01/19 09:12:26;;;;;;;23.15;12.57;;;;;;;4.31;81.70;102439.47;4985889;28;20038;-45
2022/01/19 09:14:51;;;;;;;23.10;11.23;;;;;;;4.33;81.37;102428.69;4984222;28;20062;-46
2022/01/19 09:17:17;;;;;;;25.50;12.52;;;;;;;4.28;81.44;102428.34;5005369;22;20076;-48
2022/01/19 09:19:43;;;;;;;27.38;13.02;;;;;;;4.33;81.20;102426.03;5003612;28;20388;-48
2022/01/19 09:22:10;;;;;;;24.80;13.30;;;;;;;4.35;81.31;102424.88;5003656;28;20312;-48
2022/01/19 09:24:40;;;;;;;28.35;13.15;;;;;;;4.38;81.40;102421.88;5003308;28;20041;-48
2022/01/19 09:27:10;;;;;;;28.88;12.50;;;;;;;4.40;81.56;102411.94;5003992;28;20037;-47
2022/01/19 09:29:42;;;;;;;27.83;13.20;;;;;;;4.46;80.93;102411.25;5003758;28;20062;-47
2022/01/19 09:32:10;;;;;;;35.95;14.32;;;;;;;4.48;81.05;102413.72;5004033;28;20109;-48
2022/01/19 09:34:39;;;;;;;29.80;13.60;;;;;;;4.48;81.12;102409.25;5003713;28;20033;-49
2022/01/19 09:37:04;;;;;;;24.58;13.02;;;;;;;4.50;81.15;102404.63;5003366;28;20060;-50
2022/01/19 09:39:30;;;;;;;28.83;14.80;;;;;;;4.52;80.69;102397.31;5001929;28;20124;-48
2022/01/19 09:41:55;;;;;;;26.52;13.55;;;;;;;4.50;81.03;102391.34;5003880;28;20037;-50
2022/01/19 09:44:24;;;;;;;30.52;12.38;;;;;;;4.53;80.70;102385.72;5002505;28;20573;-48
2022/01/19 09:46:50;;;;;;;25.95;12.80;;;;;;;4.55;80.69;102377.56;4999192;28;20514;-48
2022/01/19 09:49:18;;;;;;;27.52;14.48;;;;;;;4.60;80.47;102374.41;5002328;28;20057;-48
2022/01/19 09:51:45;;;;;;;26.50;13.95;;;;;;;4.60;80.56;102361.13;5003241;28;20076;-48
2022/01/19 09:54:16;;;;;;;26.23;14.48;;;;;;;4.63;80.31;102353.66;5002750;28;20026;-49
2022/01/19 09:56:42;;;;;;;25.17;13.80;;;;;;;4.62;80.47;102340.56;5002832;28;20036;-50
2022/01/19 09:59:08;;;;;;;27.75;13.30;;;;;;;4.68;80.28;102339.91;4980623;28;20203;-49
2022/01/19 10:01:34;;;;;;;29.40;13.43;;;;;;;4.73;80.60;102324.28;5000266;28;20048;-47
2022/01/19 10:04:16;;;;;;;28.73;13.88;;;;;;;4.80;80.13;102327.88;5003610;28;20042;-50
2022/01/19 10:06:41;;;;;;;30.63;14.25;;;;;;;4.85;80.05;102330.88;5003035;28;20108;-47
2022/01/19 10:09:07;;;;;;;30.20;13.85;;;;;;;4.88;79.93;102335.00;5002691;28;20079;-47
2022/01/19 10:17:01;;;;;;;33.67;14.40;;;;;;;4.84;80.01;102334.50;4996174;28;20033;-49
2022/01/19 10:19:43;;;;;;;28.83;14.77;;;;;;;4.89;80.40;102332.19;5001196;28;20112;-49
2022/01/19 10:22:18;;;;;;;28.13;15.15;;;;;;;4.94;80.07;102324.53;5002645;28;20033;-47
2022/01/19 10:24:52;;;;;;;26.58;14.15;;;;;;;5.04;79.73;102319.00;5003151;28;20177;-47
2022/01/19 10:27:37;;;;;;;34.10;15.40;;;;;;;5.12;79.57;102318.97;5001548;28;20043;-47
2022/01/19 10:30:03;;;;;;;26.17;13.15;;;;;;;5.18;79.62;102309.47;4999794;28;20021;-47
2022/01/19 10:32:33;;;;;;;24.92;13.48;;;;;;;5.23;79.39;102312.44;5001029;28;20041;-48
2022/01/19 10:35:27;;;;;;;29.35;14.70;;;;;;;5.29;79.38;102315.22;5002656;28;20034;-48
2022/01/19 10:38:23;;;;;;;28.88;15.43;;;;;;;5.34;78.76;102304.88;4998105;28;20148;-48
2022/01/19 10:40:58;;;;;;;36.33;16.20;;;;;;;5.38;78.94;102298.19;4997875;28;20029;-47
2022/01/19 10:43:32;;;;;;;34.88;15.00;;;;;;;5.45;78.65;102295.69;5000500;28;20483;-49
2022/01/19 10:46:01;;;;;;;30.65;16.63;;;;;;;5.53;78.74;102287.66;5001297;28;20387;-47
2022/01/19 10:48:36;;;;;;;29.15;14.15;;;;;;;5.55;78.60;102288.28;5000453;28;20033;-48
2022/01/19 10:51:12;;;;;;;26.60;13.90;;;;;;;5.58;78.67;102282.66;5002201;28;20557;-48
2022/01/19 10:53:40;;;;;;;29.83;12.93;;;;;;;5.65;78.40;102280.09;5001563;28;20386;-48
2022/01/19 10:56:06;;;;;;;25.88;13.85;;;;;;;5.69;78.41;102263.59;4999167;28;20616;-48
2022/01/19 10:58:52;;;;;;;24.48;13.13;;;;;;;5.80;77.88;102259.69;5001559;28;20080;-48
2022/01/19 11:01:35;;;;;;;25.88;12.27;;;;;;;5.82;77.63;102239.06;5000828;28;20522;-47
2022/01/19 11:04:18;;;;;;;24.50;12.18;;;;;;;5.84;77.53;102231.72;4999929;28;20132;-48
2022/01/19 11:06:44;;;;;;;23.67;11.60;;;;;;;5.80;77.83;102224.28;5001320;28;20076;-47
2022/01/19 11:09:14;;;;;;;32.42;13.27;;;;;;;5.91;77.41;102208.72;5000789;28;20026;-48
2022/01/19 11:11:40;;;;;;;20.60;11.43;;;;;;;5.92;77.53;102209.56;5001830;28;20437;-47
2022/01/19 11:14:08;;;;;;;19.90;11.30;;;;;;;5.96;77.18;102192.25;5001472;28;20494;-48
2022/01/19 11:16:33;;;;;;;24.23;10.35;;;;;;;6.00;77.32;102185.53;4999531;28;20045;-48
2022/01/19 11:18:59;;;;;;;19.08;9.85;;;;;;;6.05;77.26;102177.81;5001589;28;20522;-47
2022/01/19 11:21:30;;;;;;;21.08;10.55;;;;;;;6.05;77.00;102170.66;5000399;28;20022;-48
2022/01/19 11:24:08;;;;;;;22.02;8.55;;;;;;;6.15;76.53;102165.09;5001248;28;20037;-49
2022/01/19 11:26:35;;;;;;;21.25;9.82;;;;;;;6.21;76.58;102158.19;5001087;28;20092;-48
2022/01/19 11:29:15;;;;;;;22.65;9.27;;;;;;;6.25;76.41;102138.19;5001502;28;20216;-48
2022/01/19 11:31:41;;;;;;;18.58;8.57;;;;;;;6.35;76.32;102134.22;5002166;28;20033;-49
2022/01/19 11:34:06;;;;;;;20.30;8.77;;;;;;;6.45;75.80;102130.44;5000817;28;20037;-49
2022/01/19 11:36:42;;;;;;;22.85;8.95;;;;;;;6.53;75.38;102130.34;5000396;28;20030;-48
2022/01/19 11:39:14;;;;;;;15.80;8.30;;;;;;;6.68;75.35;102127.63;5001018;28;20454;-49
2022/01/19 11:41:47;;;;;;;20.83;8.38;;;;;;;6.81;75.20;102117.91;5001447;28;20567;-48
2022/01/19 11:44:20;;;;;;;19.65;8.38;;;;;;;6.94;74.78;102110.06;4997338;28;20041;-48
2022/01/19 11:46:53;;;;;;;18.25;8.20;;;;;;;6.98;74.25;102100.66;5001170;28;20263;-48
2022/01/19 11:49:41;;;;;;;15.40;7.15;;;;;;;7.02;73.97;102087.00;5000433;28;20034;-48
2022/01/19 11:52:06;;;;;;;19.10;7.75;;;;;;;7.16;73.80;102072.72;4999358;28;20333;-48
2022/01/19 11:54:33;;;;;;;17.27;7.57;;;;;;;7.24;73.42;102067.28;5001363;28;20501;-48
2022/01/19 11:56:59;;;;;;;17.77;7.07;;;;;;;7.27;73.21;102062.38;5002549;28;20026;-48
2022/01/19 11:59:53;;;;;;;18.25;7.03;;;;;;;7.38;73.53;102052.22;5004210;28;20135;-49
2022/01/19 12:02:58;;;;;;;15.13;7.30;;;;;;;7.46;73.28;102044.03;5002169;28;20528;-49
2022/01/19 12:05:35;;;;;;;20.85;7.60;;;;;;;7.57;72.74;102033.66;5003940;28;20510;-49
2022/01/19 12:08:17;;;;;;;16.92;7.25;;;;;;;7.68;72.54;102015.44;5005044;28;20103;-48
2022/01/19 12:10:46;;;;;;;17.30;7.28;;;;;;;7.71;72.73;102004.38;5005421;28;20079;-49
2022/01/19 12:13:41;;;;;;;16.83;7.75;;;;;;;7.73;72.44;101989.81;5004015;28;20030;-48
2022/01/19 12:18:58;;;;;;;11.20;6.13;;;;;;;7.74;72.34;101961.31;5002098;28;20507;-49
2022/01/19 12:21:41;;;;;;;15.32;7.30;;;;;;;7.71;71.93;101959.00;5004351;28;20620;-48
2022/01/19 12:24:13;;;;;;;16.67;6.55;;;;;;;7.66;72.06;101945.44;5004754;28;20120;-50
2022/01/19 12:27:14;;;;;;;15.93;6.90;;;;;;;7.57;72.28;101944.81;5004048;28;20037;-49
2022/01/19 12:29:52;;;;;;;18.35;6.90;;;;;;;7.51;71.73;101937.59;4977847;28;20033;-48
2022/01/19 12:32:18;;;;;;;11.93;5.95;;;;;;;7.43;71.99;101930.59;5001416;28;20720;-48
2022/01/19 12:34:51;;;;;;;16.23;6.20;;;;;;;7.35;71.69;101925.41;5001081;28;20037;-48
2022/01/19 12:37:32;;;;;;;13.15;6.07;;;;;;;7.35;71.86;101925.41;5002479;28;20103;-49
2022/01/19 12:40:00;;;;;;;10.73;5.47;;;;;;;7.34;72.46;101907.78;5002173;28;20506;-48
2022/01/19 12:42:41;;;;;;;15.25;5.22;;;;;;;7.36;72.11;101911.09;5003061;28;20033;-48
2022/01/19 12:45:28;;;;;;;12.82;5.05;;;;;;;7.42;71.75;101915.63;5000490;28;20404;-49
2022/01/19 12:47:59;;;;;;;9.55;4.45;;;;;;;7.37;71.69;101930.56;5002235;28;20723;-48
2022/01/19 12:50:27;;;;;;;13.30;5.43;;;;;;;7.42;71.68;101944.13;4984226;28;20029;-48
2022/01/19 12:52:58;;;;;;;14.60;4.88;;;;;;;7.49;71.50;101924.47;5004446;28;20113;-48
2022/01/19 12:55:27;;;;;;;11.68;4.88;;;;;;;7.52;71.63;101913.38;5001582;28;20128;-48
2022/01/19 12:57:54;;;;;;;11.30;4.82;;;;;;;7.54;71.74;101903.38;5004666;28;20124;-48
2022/01/19 13:00:27;;;;;;;14.00;4.90;;;;;;;7.53;71.42;101892.88;5003906;28;20028;-49
2022/01/19 13:02:53;;;;;;;12.23;4.90;;;;;;;7.53;71.52;101892.88;5004763;28;20135;-48